createdAt,value
2018-07-03T00:00:24.865Z,68.49
2018-07-03T00:01:24.788Z,68.97
2018-07-03T00:02:24.733Z,69.26
2018-07-03T00:03:24.638Z,69.07
2018-07-03T00:04:24.604Z,68.59
2018-07-03T00:05:24.491Z,68.97
2018-07-03T00:06:24.417Z,68.30
2018-07-03T00:07:24.339Z,71.75
2018-07-03T00:08:24.265Z,70.31
2018-07-03T00:09:24.194Z,68.78
2018-07-03T00:10:24.117Z,69.45
2018-07-03T00:11:24.039Z,68.59
2018-07-03T00:12:23.964Z,71.46
2018-07-03T00:13:23.887Z,71.84
2018-07-03T00:14:23.812Z,69.83
2018-07-03T00:15:23.742Z,70.21
2018-07-03T00:16:23.662Z,69.74
2018-07-03T00:17:23.590Z,69.54
2018-07-03T00:18:23.516Z,69.54
2018-07-03T00:19:23.455Z,70.21
2018-07-03T00:20:23.368Z,70.79
2018-07-03T00:21:23.287Z,70.50
2018-07-03T00:22:23.221Z,69.64
2018-07-03T00:23:23.146Z,72.03
2018-07-03T00:24:23.065Z,72.32
2018-07-03T00:25:22.992Z,70.03
2018-07-03T00:26:22.914Z,70.70
2018-07-03T00:27:22.837Z,70.31
2018-07-03T00:28:22.764Z,70.12
2018-07-03T00:29:22.688Z,71.75
2018-07-03T00:30:22.643Z,72.52
2018-07-03T00:31:22.538Z,72.23
2018-07-03T00:32:22.461Z,71.46
2018-07-03T00:33:22.387Z,72.32
2018-07-03T00:34:22.315Z,71.27
2018-07-03T00:35:22.236Z,71.94
2018-07-03T00:36:22.162Z,72.03
2018-07-03T00:37:22.085Z,72.23
2018-07-03T00:38:22.031Z,72.32
2018-07-03T00:39:21.939Z,72.23
2018-07-03T00:40:21.864Z,71.08
2018-07-03T00:41:21.786Z,71.75
2018-07-03T00:42:21.713Z,72.61
2018-07-03T00:43:21.642Z,71.27
2018-07-03T00:44:21.560Z,71.37
2018-07-03T00:45:21.487Z,71.27
2018-07-03T00:46:21.411Z,72.42
2018-07-03T00:47:21.338Z,71.75
2018-07-03T00:48:21.262Z,70.79
2018-07-03T00:49:21.185Z,71.66
2018-07-03T00:50:21.112Z,72.23
2018-07-03T00:51:21.035Z,72.23
2018-07-03T00:52:20.959Z,72.23
2018-07-03T00:53:20.886Z,73.19
2018-07-03T00:54:20.808Z,73.72
2018-07-03T00:55:20.732Z,74.20
2018-07-03T00:56:20.659Z,75.07
2018-07-03T00:57:20.582Z,74.87
2018-07-03T00:58:20.526Z,74.87
2018-07-03T00:59:20.431Z,74.30
2018-07-03T01:00:20.359Z,74.20
2018-07-03T01:01:20.297Z,73.82
2018-07-03T01:02:20.209Z,73.24
2018-07-03T01:03:20.133Z,76.02
2018-07-03T01:04:20.073Z,76.89
2018-07-03T01:05:19.979Z,77.08
2018-07-03T01:06:19.906Z,76.31
2018-07-03T01:07:19.835Z,75.93
2018-07-03T01:08:19.753Z,77.65
2018-07-03T01:09:19.677Z,77.84
2018-07-03T01:10:19.604Z,77.75
2018-07-03T01:11:19.525Z,74.68
2018-07-03T01:12:19.468Z,73.44
2018-07-03T01:13:19.382Z,73.91
2018-07-03T01:14:19.297Z,73.72
2018-07-03T01:15:19.223Z,74.87
2018-07-03T01:16:19.146Z,74.40
2018-07-03T01:17:19.111Z,74.30
2018-07-03T01:18:19.001Z,74.68
2018-07-03T01:19:18.919Z,74.77
2018-07-03T01:20:18.843Z,75.35
2018-07-03T01:21:18.768Z,75.35
2018-07-03T01:22:18.696Z,76.79
2018-07-03T01:23:18.623Z,76.18
2018-07-03T01:24:18.543Z,76.08
2018-07-03T01:25:18.467Z,78.32
2018-07-03T01:26:18.393Z,78.03
2018-07-03T01:27:18.314Z,77.70
2018-07-03T01:28:18.239Z,77.46
2018-07-03T01:29:18.164Z,77.84
2018-07-03T01:30:18.089Z,77.17
2018-07-03T01:31:18.012Z,76.79
2018-07-03T01:32:17.938Z,75.73
2018-07-03T01:33:17.878Z,76.31
2018-07-03T01:34:17.792Z,76.69
2018-07-03T01:35:17.713Z,75.64
2018-07-03T01:36:17.658Z,75.45
2018-07-03T01:37:17.561Z,75.70
2018-07-03T01:38:17.485Z,77.33
2018-07-03T01:39:17.406Z,77.33
2018-07-03T01:40:17.332Z,76.56
2018-07-03T01:41:17.259Z,76.46
2018-07-03T01:42:17.181Z,77.61
2018-07-03T01:43:17.104Z,77.61
2018-07-03T01:44:17.029Z,77.51
2018-07-03T01:45:16.952Z,76.56
2018-07-03T01:46:16.878Z,77.23
2018-07-03T01:47:16.801Z,77.70
2018-07-03T01:48:16.734Z,77.99
2018-07-03T01:49:16.669Z,77.23
2018-07-03T01:50:16.576Z,77.80
2018-07-03T01:51:16.498Z,77.51
2018-07-03T01:52:16.422Z,76.46
2018-07-03T01:53:16.346Z,75.98
2018-07-03T01:54:16.271Z,76.56
2018-07-03T01:55:16.195Z,75.70
2018-07-03T01:56:16.118Z,74.65
2018-07-03T01:57:16.049Z,75.70
2018-07-03T01:58:15.969Z,76.37
2018-07-03T01:59:15.917Z,77.13
2018-07-03T02:00:15.829Z,77.33
2018-07-03T02:01:15.740Z,77.23
2018-07-03T02:02:15.665Z,76.27
2018-07-03T02:03:15.595Z,75.37
2018-07-03T02:04:15.513Z,75.47
2018-07-03T02:05:15.437Z,75.27
2018-07-03T02:06:15.368Z,75.95
2018-07-03T02:07:15.283Z,75.76
2018-07-03T02:08:15.208Z,76.14
2018-07-03T02:09:15.131Z,76.62
2018-07-03T02:10:15.057Z,77.19
2018-07-03T02:11:14.979Z,76.33
2018-07-03T02:12:14.903Z,77.19
2018-07-03T02:13:14.827Z,77.38
2018-07-03T02:14:14.761Z,77.95
2018-07-03T02:15:14.675Z,79.20
2018-07-03T02:16:14.598Z,79.77
2018-07-03T02:17:14.521Z,79.77
2018-07-03T02:18:14.450Z,79.20
2018-07-03T02:19:14.370Z,79.39
2018-07-03T02:20:14.296Z,78.53
2018-07-03T02:21:14.226Z,79.10
2018-07-03T02:22:14.144Z,79.00
2018-07-03T02:23:14.065Z,78.34
2018-07-03T02:24:13.993Z,78.91
2018-07-03T02:25:13.930Z,77.86
2018-07-03T02:26:13.847Z,77.76
2018-07-03T02:27:13.762Z,77.76
2018-07-03T02:28:13.688Z,78.34
2018-07-03T02:29:13.609Z,77.38
2018-07-03T02:30:13.538Z,78.53
2018-07-03T02:31:13.458Z,79.58
2018-07-03T02:32:13.394Z,78.81
2018-07-03T02:33:13.309Z,78.81
2018-07-03T02:34:13.233Z,78.53
2018-07-03T02:35:13.157Z,77.95
2018-07-03T02:36:13.080Z,77.57
2018-07-03T02:37:13.004Z,78.81
2018-07-03T02:38:12.926Z,78.53
2018-07-03T02:39:12.860Z,77.76
2018-07-03T02:40:12.776Z,77.57
2018-07-03T02:41:12.699Z,77.28
2018-07-03T02:42:12.625Z,76.52
2018-07-03T02:43:12.546Z,75.85
2018-07-03T02:44:12.479Z,76.52
2018-07-03T02:45:12.393Z,76.90
2018-07-03T02:46:12.322Z,77.09
2018-07-03T02:47:12.239Z,77.76
2018-07-03T02:48:12.164Z,77.76
2018-07-03T02:49:12.088Z,77.38
2018-07-03T02:50:12.014Z,78.24
2018-07-03T02:51:11.963Z,78.05
2018-07-03T02:52:11.870Z,76.33
2018-07-03T02:53:11.784Z,76.52
2018-07-03T02:54:11.708Z,75.56
2018-07-03T02:55:11.629Z,75.37
2018-07-03T02:56:11.572Z,76.90
2018-07-03T02:57:11.480Z,78.34
2018-07-03T02:58:11.407Z,78.34
2018-07-03T02:59:11.326Z,77.19
2018-07-03T03:00:11.251Z,77.00
2018-07-03T03:01:11.174Z,77.38
2018-07-03T03:02:11.109Z,76.33
2018-07-03T03:03:11.061Z,75.95
2018-07-03T03:04:10.945Z,75.27
2018-07-03T03:05:10.870Z,75.56
2018-07-03T03:06:10.794Z,76.14
2018-07-03T03:07:10.744Z,76.57
2018-07-03T03:08:10.684Z,77.25
2018-07-03T03:09:10.567Z,78.11
2018-07-03T03:10:10.486Z,78.01
2018-07-03T03:11:10.414Z,78.49
2018-07-03T03:12:10.339Z,78.58
2018-07-03T03:13:10.260Z,78.11
2018-07-03T03:14:10.184Z,78.87
2018-07-03T03:15:10.124Z,80.79
2018-07-03T03:16:10.032Z,80.98
2018-07-03T03:17:09.957Z,81.07
2018-07-03T03:18:09.878Z,80.02
2018-07-03T03:19:09.834Z,80.11
2018-07-03T03:20:09.724Z,80.21
2018-07-03T03:21:09.674Z,79.16
2018-07-03T03:22:09.607Z,78.58
2018-07-03T03:23:09.503Z,78.68
2018-07-03T03:24:09.437Z,78.87
2018-07-03T03:25:09.346Z,78.49
2018-07-03T03:26:09.267Z,77.82
2018-07-03T03:27:09.201Z,77.72
2018-07-03T03:28:09.113Z,77.63
2018-07-03T03:29:09.047Z,78.78
2018-07-03T03:30:08.962Z,79.06
2018-07-03T03:31:08.883Z,79.93
2018-07-03T03:32:08.806Z,79.35
2018-07-03T03:33:08.730Z,79.16
2018-07-03T03:34:08.675Z,79.83
2018-07-03T03:35:08.591Z,79.64
2018-07-03T03:36:08.501Z,79.83
2018-07-03T03:37:08.430Z,78.01
2018-07-03T03:38:08.350Z,77.92
2018-07-03T03:39:08.273Z,78.68
2018-07-03T03:40:08.197Z,78.11
2018-07-03T03:41:08.121Z,77.25
2018-07-03T03:42:08.046Z,77.72
2018-07-03T03:43:07.965Z,78.01
2018-07-03T03:44:07.890Z,78.39
2018-07-03T03:45:07.814Z,77.53
2018-07-03T03:46:07.739Z,77.15
2018-07-03T03:47:07.679Z,77.34
2018-07-03T03:48:07.583Z,77.34
2018-07-03T03:49:07.509Z,76.96
2018-07-03T03:50:07.431Z,77.72
2018-07-03T03:51:07.357Z,78.14
2018-07-03T03:52:07.277Z,78.49
2018-07-03T03:53:07.203Z,76.77
2018-07-03T03:54:07.127Z,76.96
2018-07-03T03:55:07.078Z,76.57
2018-07-03T03:56:06.978Z,77.09
2018-07-03T03:57:06.898Z,77.48
2018-07-03T03:58:06.822Z,76.90
2018-07-03T03:59:06.744Z,77.86
2018-07-03T04:00:06.675Z,77.76
2018-07-03T04:01:06.593Z,79.29
2018-07-03T04:02:06.542Z,79.49
2018-07-03T04:03:06.438Z,79.68
2018-07-03T04:04:06.362Z,77.86
2018-07-03T04:05:06.287Z,78.91
2018-07-03T04:06:06.212Z,78.34
2018-07-03T04:07:06.147Z,78.34
2018-07-03T04:08:06.056Z,78.05
2018-07-03T04:09:05.981Z,77.28
2018-07-03T04:10:05.905Z,77.28
2018-07-03T04:11:05.832Z,76.52
2018-07-03T04:12:05.773Z,77.38
2018-07-03T04:13:05.686Z,77.00
2018-07-03T04:14:05.600Z,76.52
2018-07-03T04:15:05.524Z,75.76
2018-07-03T04:16:05.449Z,74.61
2018-07-03T04:17:05.379Z,74.84
2018-07-03T04:18:05.298Z,73.88
2018-07-03T04:19:05.222Z,72.34
2018-07-03T04:20:05.145Z,71.20
2018-07-03T04:21:05.068Z,72.16
2018-07-03T04:22:04.994Z,72.44
2018-07-03T04:23:05.125Z,71.97
2018-07-03T04:24:04.841Z,72.16
2018-07-03T04:25:04.764Z,72.06
2018-07-03T04:26:04.686Z,69.76
2018-07-03T04:27:04.612Z,68.71
2018-07-03T04:28:04.548Z,69.48
2018-07-03T04:29:04.460Z,68.33
2018-07-03T04:30:04.382Z,68.90
2018-07-03T04:31:04.307Z,68.52
2018-07-03T04:32:04.240Z,68.62
2018-07-03T04:33:04.158Z,68.71
2018-07-03T04:34:04.123Z,70.43
2018-07-03T04:35:04.006Z,70.91
2018-07-03T04:36:03.927Z,68.94
2018-07-03T04:37:03.871Z,68.46
2018-07-03T04:38:03.788Z,67.56
2018-07-03T04:39:03.700Z,67.21
2018-07-03T04:40:03.628Z,67.60
2018-07-03T04:41:03.569Z,68.55
2018-07-03T04:42:03.483Z,69.32
2018-07-03T04:43:03.415Z,69.51
2018-07-03T04:44:03.322Z,69.60
2018-07-03T04:45:03.249Z,68.36
2018-07-03T04:46:03.186Z,67.50
2018-07-03T04:47:03.098Z,67.21
2018-07-03T04:48:03.024Z,68.65
2018-07-03T04:49:02.957Z,70.28
2018-07-03T04:50:02.874Z,68.17
2018-07-03T04:51:02.793Z,67.41
2018-07-03T04:52:02.718Z,69.23
2018-07-03T04:53:02.652Z,67.98
2018-07-03T04:54:02.569Z,66.77
2018-07-03T04:55:02.492Z,67.31
2018-07-03T04:56:02.415Z,66.09
2018-07-03T04:57:02.397Z,64.66
2018-07-03T04:58:02.265Z,64.76
2018-07-03T04:59:02.191Z,66.19
2018-07-03T05:00:02.115Z,67.05
2018-07-03T05:01:02.045Z,66.48
2018-07-03T05:02:01.965Z,67.05
2018-07-03T05:03:01.905Z,66.09
2018-07-03T05:04:01.817Z,67.82
2018-07-03T05:05:01.738Z,68.49
2018-07-03T05:06:01.662Z,64.76
2018-07-03T05:07:01.589Z,65.23
2018-07-03T05:08:01.513Z,65.62
2018-07-03T05:09:01.436Z,64.47
2018-07-03T05:10:01.365Z,63.80
2018-07-03T05:11:01.287Z,64.18
2018-07-03T05:12:01.213Z,62.84
2018-07-03T05:13:01.144Z,62.36
2018-07-03T05:14:01.061Z,63.03
2018-07-03T05:15:00.983Z,62.55
2018-07-03T05:16:00.919Z,62.55
2018-07-03T05:17:00.834Z,62.36
2018-07-03T05:18:00.768Z,61.69
2018-07-03T05:19:00.685Z,62.46
2018-07-03T05:20:00.609Z,62.46
2018-07-03T05:21:00.536Z,62.65
2018-07-03T05:22:00.462Z,62.26
2018-07-03T05:23:00.383Z,62.26
2018-07-03T05:24:00.310Z,62.17
2018-07-03T05:25:00.235Z,63.42
2018-07-03T05:26:00.163Z,63.03
2018-07-03T05:27:00.083Z,63.03
2018-07-03T05:28:00.031Z,63.13
2018-07-03T05:28:59.941Z,63.42
2018-07-03T05:29:59.859Z,63.13
2018-07-03T05:30:59.782Z,62.17
2018-07-03T05:31:59.710Z,62.49
2018-07-03T05:32:59.635Z,62.77
2018-07-03T05:33:59.579Z,63.16
2018-07-03T05:34:59.488Z,64.69
2018-07-03T05:35:59.412Z,65.94
2018-07-03T05:36:59.334Z,66.22
2018-07-03T05:37:59.259Z,65.55
2018-07-03T05:38:59.183Z,66.13
2018-07-03T05:39:59.130Z,67.69
2018-07-03T05:40:59.036Z,67.79
2018-07-03T05:41:59.144Z,68.27
2018-07-03T05:42:58.964Z,65.30
2018-07-03T05:43:58.812Z,64.43
2018-07-03T05:44:58.749Z,65.01
2018-07-03T05:45:58.661Z,65.30
2018-07-03T05:46:58.584Z,66.06
2018-07-03T05:47:58.518Z,65.20
2018-07-03T05:48:58.437Z,63.76
2018-07-03T05:49:58.365Z,62.23
2018-07-03T05:50:58.292Z,62.16
2018-07-03T05:51:58.214Z,61.02
2018-07-03T05:52:58.155Z,61.88
2018-07-03T05:53:58.067Z,61.69
2018-07-03T05:54:57.988Z,61.69
2018-07-03T05:55:57.913Z,62.07
2018-07-03T05:56:57.841Z,62.26
2018-07-03T05:57:57.769Z,62.55
2018-07-03T05:58:57.691Z,61.40
2018-07-03T05:59:57.616Z,61.30
2018-07-03T06:00:57.545Z,61.49
2018-07-03T06:01:57.475Z,62.36
2018-07-03T06:02:57.395Z,61.98
2018-07-03T06:03:57.397Z,62.29
2018-07-03T06:04:57.245Z,61.69
2018-07-03T06:05:57.170Z,61.11
2018-07-03T06:06:57.100Z,61.43
2018-07-03T06:07:57.023Z,60.85
2018-07-03T06:08:56.951Z,61.33
2018-07-03T06:09:56.874Z,62.48
2018-07-03T06:10:56.799Z,61.43
2018-07-03T06:11:56.724Z,59.89
2018-07-03T06:12:56.663Z,60.38
2018-07-03T06:13:56.580Z,61.05
2018-07-03T06:14:56.583Z,60.75
2018-07-03T06:15:56.444Z,60.18
2018-07-03T06:16:56.354Z,59.22
2018-07-03T06:17:56.280Z,58.94
2018-07-03T06:18:56.413Z,58.94
2018-07-03T06:19:56.132Z,58.96
2018-07-03T06:20:56.058Z,59.16
2018-07-03T06:21:55.988Z,58.39
2018-07-03T06:22:55.974Z,58.87
2018-07-03T06:23:55.837Z,58.67
2018-07-03T06:24:55.764Z,58.96
2018-07-03T06:25:55.692Z,60.40
2018-07-03T06:26:55.617Z,59.83
2018-07-03T06:27:55.542Z,60.60
2018-07-03T06:28:55.550Z,60.02
2018-07-03T06:29:55.395Z,58.77
2018-07-03T06:30:55.325Z,59.73
2018-07-03T06:31:55.245Z,60.60
2018-07-03T06:32:55.175Z,61.65
2018-07-03T06:33:55.112Z,60.69
2018-07-03T06:34:55.027Z,59.25
2018-07-03T06:35:54.967Z,59.95
2018-07-03T06:36:54.879Z,59.16
2018-07-03T06:37:54.810Z,58.89
2018-07-03T06:38:54.734Z,59.09
2018-07-03T06:39:54.678Z,59.66
2018-07-03T06:40:54.585Z,60.82
2018-07-03T06:41:54.511Z,60.34
2018-07-03T06:42:54.440Z,59.47
2018-07-03T06:43:54.385Z,59.95
2018-07-03T06:44:54.316Z,60.63
2018-07-03T06:45:54.217Z,62.26
2018-07-03T06:46:54.147Z,61.97
2018-07-03T06:47:54.070Z,61.52
2018-07-03T06:48:53.997Z,59.86
2018-07-03T06:49:53.923Z,58.32
2018-07-03T06:50:53.851Z,58.54
2018-07-03T06:51:53.777Z,58.51
2018-07-03T06:52:53.781Z,58.54
2018-07-03T06:53:53.650Z,58.83
2018-07-03T06:54:53.555Z,59.02
2018-07-03T06:55:53.483Z,60.08
2018-07-03T06:56:53.410Z,60.17
2018-07-03T06:57:53.407Z,59.60
2018-07-03T06:58:53.261Z,59.69
2018-07-03T06:59:53.190Z,58.15
2018-07-03T07:00:53.117Z,57.39
2018-07-03T07:01:53.045Z,57.58
2018-07-03T07:02:52.970Z,58.83
2018-07-03T07:03:52.898Z,58.25
2018-07-03T07:04:52.823Z,57.87
2018-07-03T07:05:52.774Z,57.51
2018-07-03T07:06:52.703Z,57.48
2018-07-03T07:07:52.605Z,58.28
2018-07-03T07:08:52.708Z,59.15
2018-07-03T07:09:52.460Z,57.60
2018-07-03T07:11:08.695Z,56.16
2018-07-03T07:12:08.571Z,56.36
2018-07-03T07:13:08.506Z,55.88
2018-07-03T07:14:08.433Z,55.98
2018-07-03T07:15:08.416Z,55.98
2018-07-03T07:16:08.330Z,55.78
2018-07-03T07:17:08.221Z,55.98
2018-07-03T07:18:08.132Z,57.92
2018-07-03T07:19:08.060Z,56.10
2018-07-03T07:20:07.986Z,54.46
2018-07-03T07:21:07.913Z,55.33
2018-07-03T07:22:07.844Z,56.58
2018-07-03T07:23:07.852Z,54.46
2018-07-03T07:24:07.696Z,53.88
2018-07-03T07:25:07.622Z,53.98
2018-07-03T07:26:07.553Z,54.17
2018-07-03T07:27:07.494Z,54.17
2018-07-03T07:28:07.404Z,53.98
2018-07-03T07:29:07.359Z,53.78
2018-07-03T07:30:07.256Z,53.11
2018-07-03T07:31:07.184Z,53.11
2018-07-03T07:32:07.115Z,53.78
2018-07-03T07:33:07.040Z,54.08
2018-07-03T07:34:06.967Z,54.17
2018-07-03T07:35:06.896Z,52.66
2018-07-03T07:36:06.830Z,51.79
2018-07-03T07:37:06.749Z,49.96
2018-07-03T07:38:06.700Z,51.12
2018-07-03T07:39:06.605Z,52.27
2018-07-03T07:40:06.533Z,52.47
2018-07-03T07:41:06.462Z,51.79
2018-07-03T07:42:06.393Z,51.70
2018-07-03T07:43:06.316Z,51.50
2018-07-03T07:44:06.243Z,51.02
2018-07-03T07:45:06.170Z,51.02
2018-07-03T07:46:06.096Z,51.12
2018-07-03T07:47:06.026Z,51.34
2018-07-03T07:48:05.955Z,51.53
2018-07-03T07:49:05.895Z,51.43
2018-07-03T07:50:05.815Z,51.05
2018-07-03T07:51:05.733Z,50.37
2018-07-03T07:52:05.662Z,50.18
2018-07-03T07:53:05.589Z,50.27
2018-07-03T07:54:05.518Z,49.99
2018-07-03T07:55:05.520Z,49.02
2018-07-03T07:56:05.430Z,49.51
2018-07-03T07:57:05.323Z,51.82
2018-07-03T07:58:05.253Z,52.59
2018-07-03T07:59:05.157Z,51.62
2018-07-03T08:00:05.087Z,51.65
2018-07-03T08:01:05.027Z,51.75
2018-07-03T08:02:04.953Z,51.17
2018-07-03T08:03:04.959Z,51.36
2018-07-03T08:04:04.859Z,51.07
2018-07-03T08:05:04.726Z,51.75
2018-07-03T08:06:04.675Z,50.88
2018-07-03T08:07:04.580Z,51.07
2018-07-03T08:08:04.509Z,50.59
2018-07-03T08:09:04.437Z,50.88
2018-07-03T08:10:04.368Z,50.88
2018-07-03T08:11:04.303Z,50.49
2018-07-03T08:12:04.219Z,49.24
2018-07-03T08:13:04.158Z,50.11
2018-07-03T08:14:04.075Z,49.91
2018-07-03T08:15:04.002Z,49.91
2018-07-03T08:16:03.932Z,50.90
2018-07-03T08:17:03.859Z,51.39
2018-07-03T08:18:03.789Z,51.00
2018-07-03T08:19:03.732Z,50.42
2018-07-03T08:20:03.646Z,49.55
2018-07-03T08:21:03.573Z,50.23
2018-07-03T08:22:03.499Z,49.55
2018-07-03T08:23:03.453Z,48.97
2018-07-03T08:24:03.357Z,49.17
2018-07-03T08:25:03.287Z,49.55
2018-07-03T08:26:03.213Z,49.27
2018-07-03T08:27:03.143Z,50.23
2018-07-03T08:28:03.082Z,49.07
2018-07-03T08:29:03.001Z,48.69
2018-07-03T08:30:02.933Z,48.88
2018-07-03T08:31:02.856Z,50.23
2018-07-03T08:32:02.796Z,50.13
2018-07-03T08:33:02.723Z,48.81
2018-07-03T08:34:02.695Z,49.00
2018-07-03T08:35:02.568Z,48.61
2018-07-03T08:36:02.500Z,49.10
2018-07-03T08:37:02.442Z,50.26
2018-07-03T08:38:02.352Z,50.06
2018-07-03T08:39:02.281Z,49.58
2018-07-03T08:40:02.212Z,50.26
2018-07-03T08:41:02.143Z,49.29
2018-07-03T08:42:02.128Z,48.33
2018-07-03T08:43:02.002Z,48.83
2018-07-03T08:44:01.926Z,48.25
2018-07-03T08:45:02.535Z,47.77
2018-07-03T08:46:01.783Z,47.67
2018-07-03T08:47:01.716Z,48.25
2018-07-03T08:48:01.639Z,49.12
2018-07-03T08:49:01.584Z,48.06
2018-07-03T08:50:01.495Z,48.64
2018-07-03T08:51:01.426Z,48.74
2018-07-03T08:52:01.440Z,49.60
2018-07-03T08:53:01.286Z,49.70
2018-07-03T08:54:01.211Z,49.22
2018-07-03T08:55:01.173Z,47.38
2018-07-03T08:56:01.124Z,45.94
2018-07-03T08:57:00.997Z,46.90
2018-07-03T08:58:00.927Z,47.09
2018-07-03T08:59:00.856Z,48.35
2018-07-03T09:00:00.787Z,49.51
2018-07-03T09:01:00.716Z,49.22
2018-07-03T09:02:00.641Z,48.25
2018-07-03T09:03:00.574Z,48.08
2018-07-03T09:04:00.511Z,49.15
2018-07-03T09:05:00.427Z,47.41
2018-07-03T09:06:00.360Z,46.34
2018-07-03T09:07:00.291Z,45.48
2018-07-03T09:08:00.227Z,46.06
2018-07-03T09:09:00.144Z,45.86
2018-07-03T09:10:00.075Z,46.06
2018-07-03T09:11:00.007Z,45.48
2018-07-03T09:11:59.936Z,44.70
2018-07-03T09:12:59.863Z,44.80
2018-07-03T09:13:59.796Z,46.54
2018-07-03T09:14:59.719Z,45.48
2018-07-03T09:15:59.646Z,44.53
2018-07-03T09:16:59.575Z,44.80
2018-07-03T09:17:59.554Z,44.90
2018-07-03T09:18:59.435Z,42.89
2018-07-03T09:19:59.362Z,41.44
2018-07-03T09:20:59.314Z,42.21
2018-07-03T09:21:59.223Z,42.89
2018-07-03T09:22:59.149Z,42.21
2018-07-03T09:23:59.081Z,40.77
2018-07-03T09:24:59.008Z,39.80
2018-07-03T09:25:58.961Z,39.90
2018-07-03T09:26:58.868Z,39.80
2018-07-03T09:27:58.799Z,38.74
2018-07-03T09:28:58.724Z,38.74
2018-07-03T09:29:58.666Z,37.58
2018-07-03T09:30:58.584Z,37.38
2018-07-03T09:31:58.524Z,37.58
2018-07-03T09:32:58.441Z,36.61
2018-07-03T09:33:58.392Z,37.10
2018-07-03T09:34:58.304Z,36.53
2018-07-03T09:35:58.231Z,34.99
2018-07-03T09:36:58.160Z,33.91
2018-07-03T09:37:58.093Z,34.99
2018-07-03T09:38:58.026Z,34.50
2018-07-03T09:39:57.949Z,34.70
2018-07-03T09:40:57.878Z,35.57
2018-07-03T09:41:57.807Z,35.76
2018-07-03T09:42:57.737Z,34.02
2018-07-03T09:43:57.666Z,34.50
2018-07-03T09:44:57.594Z,32.96
2018-07-03T09:45:57.525Z,34.41
2018-07-03T09:46:57.463Z,35.57
2018-07-03T09:47:57.384Z,37.98
2018-07-03T09:48:57.356Z,36.63
2018-07-03T09:49:57.242Z,36.92
2018-07-03T09:50:57.174Z,35.37
2018-07-03T09:51:57.101Z,35.57
2018-07-03T09:52:57.032Z,34.41
2018-07-03T09:53:56.963Z,35.37
2018-07-03T09:54:56.919Z,36.72
2018-07-03T09:55:56.823Z,36.63
2018-07-03T09:56:56.748Z,35.47
2018-07-03T09:57:56.681Z,35.47
2018-07-03T09:58:56.611Z,36.24
2018-07-03T09:59:56.539Z,36.16
2018-07-03T10:00:56.467Z,35.28
2018-07-03T10:01:56.399Z,34.60
2018-07-03T10:02:56.329Z,34.70
2018-07-03T10:03:56.264Z,34.70
2018-07-03T10:04:56.186Z,34.21
2018-07-03T10:05:56.117Z,34.31
2018-07-03T10:06:56.046Z,35.37
2018-07-03T10:07:55.977Z,35.57
2018-07-03T10:08:55.906Z,35.28
2018-07-03T10:09:55.842Z,35.66
2018-07-03T10:10:55.763Z,36.63
2018-07-03T10:11:55.698Z,37.98
2018-07-03T10:12:55.778Z,35.68
2018-07-03T10:13:55.596Z,36.07
2018-07-03T10:14:55.485Z,36.26
2018-07-03T10:15:55.412Z,35.00
2018-07-03T10:16:55.345Z,36.65
2018-07-03T10:17:55.275Z,36.84
2018-07-03T10:18:55.217Z,35.88
2018-07-03T10:19:55.132Z,36.57
2018-07-03T10:20:55.060Z,35.60
2018-07-03T10:21:54.992Z,35.70
2018-07-03T10:22:54.921Z,35.89
2018-07-03T10:23:54.857Z,36.18
2018-07-03T10:24:54.782Z,34.73
2018-07-03T10:25:54.712Z,33.76
2018-07-03T10:26:54.655Z,33.18
2018-07-03T10:27:54.581Z,33.37
2018-07-03T10:28:54.502Z,35.02
2018-07-03T10:29:54.430Z,37.73
2018-07-03T10:30:54.362Z,35.89
2018-07-03T10:31:54.290Z,36.66
2018-07-03T10:32:54.220Z,36.76
2018-07-03T10:33:54.150Z,38.70
2018-07-03T10:34:54.086Z,36.68
2018-07-03T10:35:54.010Z,35.91
2018-07-03T10:36:53.945Z,35.62
2018-07-03T10:37:53.904Z,34.94
2018-07-03T10:38:53.799Z,36.78
2018-07-03T10:39:53.730Z,37.07
2018-07-03T10:40:53.659Z,35.33
2018-07-03T10:41:53.590Z,34.65
2018-07-03T10:42:53.519Z,34.09
2018-07-03T10:43:53.451Z,33.10
2018-07-03T10:44:53.412Z,33.49
2018-07-03T10:45:53.337Z,33.59
2018-07-03T10:46:53.261Z,33.69
2018-07-03T10:47:53.174Z,34.84
2018-07-03T10:48:53.128Z,34.77
2018-07-03T10:49:53.034Z,36.70
2018-07-03T10:50:52.976Z,37.96
2018-07-03T10:51:52.895Z,38.06
2018-07-03T10:52:52.829Z,36.80
2018-07-03T10:53:52.754Z,37.01
2018-07-03T10:54:52.687Z,36.91
2018-07-03T10:55:52.617Z,37.88
2018-07-03T10:56:52.569Z,36.72
2018-07-03T10:57:52.476Z,35.36
2018-07-03T10:58:52.411Z,34.59
2018-07-03T10:59:52.339Z,37.61
2018-07-03T11:00:52.270Z,36.74
2018-07-03T11:01:52.201Z,38.58
2018-07-03T11:02:52.150Z,39.45
2018-07-03T11:03:52.074Z,39.26
2018-07-03T11:04:52.008Z,36.16
2018-07-03T11:05:51.929Z,34.99
2018-07-03T11:06:51.871Z,35.67
2018-07-03T11:07:51.791Z,35.09
2018-07-03T11:08:51.717Z,35.48
2018-07-03T11:09:51.664Z,31.79
2018-07-03T11:10:51.580Z,30.15
2018-07-03T11:11:51.512Z,29.85
2018-07-03T11:12:51.444Z,30.54
2018-07-03T11:13:51.416Z,29.47
2018-07-03T11:14:51.308Z,31.79
2018-07-03T11:15:51.242Z,33.65
2018-07-03T11:16:51.169Z,31.70
2018-07-03T11:17:51.106Z,30.74
2018-07-03T11:18:51.032Z,30.16
2018-07-03T11:19:51.015Z,32.39
2018-07-03T11:20:50.895Z,28.80
2018-07-03T11:21:50.824Z,27.45
2018-07-03T11:22:50.771Z,28.51
2018-07-03T11:23:50.688Z,28.51
2018-07-03T11:24:50.620Z,28.22
2018-07-03T11:25:50.551Z,27.93
2018-07-03T11:26:50.483Z,28.61
2018-07-03T11:27:50.413Z,29.68
2018-07-03T11:28:50.395Z,31.62
2018-07-03T11:29:50.289Z,31.44
2018-07-03T11:30:50.213Z,31.34
2018-07-03T11:31:50.169Z,30.76
2018-07-03T11:32:50.077Z,29.11
2018-07-03T11:33:50.102Z,27.07
2018-07-03T11:34:49.948Z,28.14
2018-07-03T11:35:49.872Z,26.59
2018-07-03T11:36:49.801Z,26.89
2018-07-03T11:37:49.799Z,26.59
2018-07-03T11:38:49.677Z,24.45
2018-07-03T11:39:49.595Z,25.32
2018-07-03T11:40:49.527Z,24.35
2018-07-03T11:41:49.459Z,24.93
2018-07-03T11:42:49.405Z,25.42
2018-07-03T11:43:49.324Z,26.49
2018-07-03T11:44:49.274Z,27.07
2018-07-03T11:45:49.208Z,28.53
2018-07-03T11:46:49.120Z,28.05
2018-07-03T11:47:49.063Z,26.89
2018-07-03T11:48:48.981Z,26.31
2018-07-03T11:49:48.915Z,25.63
2018-07-03T11:50:48.847Z,25.53
2018-07-03T11:51:48.884Z,25.82
2018-07-03T11:52:48.711Z,25.63
2018-07-03T11:53:48.643Z,25.92
2018-07-03T11:54:48.579Z,25.43
2018-07-03T11:55:48.512Z,26.11
2018-07-03T11:56:48.441Z,25.63
2018-07-03T11:57:48.372Z,25.92
2018-07-03T11:58:48.304Z,24.66
2018-07-03T11:59:48.234Z,25.53
2018-07-03T12:00:48.166Z,26.70
2018-07-03T12:01:48.118Z,26.79
2018-07-03T12:02:48.033Z,25.82
2018-07-03T12:03:47.964Z,26.60
2018-07-03T12:04:47.899Z,26.51
2018-07-03T12:05:47.831Z,24.95
2018-07-03T12:06:47.758Z,25.64
2018-07-03T12:07:47.698Z,25.43
2018-07-03T12:08:47.623Z,25.25
2018-07-03T12:09:47.560Z,25.25
2018-07-03T12:10:47.487Z,26.03
2018-07-03T12:11:47.418Z,25.54
2018-07-03T12:12:47.349Z,25.15
2018-07-03T12:13:47.294Z,26.51
2018-07-03T12:14:47.214Z,26.71
2018-07-03T12:15:47.155Z,29.15
2018-07-03T12:16:47.103Z,29.15
2018-07-03T12:17:47.016Z,27.01
2018-07-03T12:18:46.947Z,26.23
2018-07-03T12:19:46.926Z,26.23
2018-07-03T12:20:46.810Z,26.43
2018-07-03T12:21:46.749Z,26.44
2018-07-03T12:22:46.682Z,25.65
2018-07-03T12:23:46.607Z,25.46
2018-07-03T12:24:46.539Z,25.37
2018-07-03T12:25:46.472Z,26.44
2018-07-03T12:26:46.404Z,27.12
2018-07-03T12:27:46.339Z,26.83
2018-07-03T12:28:46.287Z,26.15
2018-07-03T12:29:46.203Z,25.67
2018-07-03T12:30:46.137Z,24.60
2018-07-03T12:31:46.067Z,24.89
2018-07-03T12:32:46.102Z,24.79
2018-07-03T12:33:45.933Z,24.40
2018-07-03T12:34:45.866Z,24.97
2018-07-03T12:35:45.796Z,25.46
2018-07-03T12:36:45.822Z,25.37
2018-07-03T12:37:45.662Z,27.42
2018-07-03T12:38:45.600Z,26.64
2018-07-03T12:39:45.528Z,25.38
2018-07-03T12:40:45.461Z,25.09
2018-07-03T12:41:45.391Z,25.68
2018-07-03T12:42:45.330Z,26.75
2018-07-03T12:43:45.260Z,25.97
2018-07-03T12:44:45.190Z,25.68
2018-07-03T12:45:45.145Z,25.79
2018-07-03T12:46:45.073Z,26.08
2018-07-03T12:47:45.019Z,25.98
2018-07-03T12:48:44.926Z,24.91
2018-07-03T12:49:44.900Z,25.10
2018-07-03T12:50:44.786Z,26.47
2018-07-03T12:51:44.735Z,26.37